RKSM METAR and TAF | Updated Today

RKSM METAR

Seoul Air Base (K-16)

Observation time: 2:51 hr. ago

RKSM 080400Z 05005KT 9999 SKC 12/02 A3050

Need help? Read our tutorial on how to read METARs or read the parsed version below.

Seoul Air Base (K-16) (RKSM) METAR

  • Weather conditions on Wed, 08 Dec 2021 04:00:00 +0000 (2:51 hr. ago):
  • Present conditions: Dry
  • Clouds: No significant changes expected
  • Visibility: Greater than 10 km
  • Wind: 50 degrees at 5 knots
  • Temperature: 12 celsius
  • Dew point: 2 celsius
  • Pressure: 30.5 millibars
  • Remarks: None


Useful to know...

RKSM TAF

Seoul Air Base (K-16)

TAF RKSM 080500Z 0806/0912 06006KT 9999 SCT030 TX12/0806Z TN01/0821Z
Observation time: 1:51 hr. ago
Need help? Read our tutorial on how to read TAFs or read the parsed version below.

Parsed version of TAF for Seoul Air Base (K-16) (RKSM)

  • From 08 December at 06:00 UTC, to day 09 of the month at 12:00 UTC
  • Clouds: Scattered at 914 meters
  • Visibility: Greater than 10 km
  • Wind: 60 degrees at 6